createdAt,value
2023-04-14T00:01:02.549Z,100.00
2023-04-14T00:03:29.618Z,100.00
2023-04-14T00:05:56.544Z,100.00
2023-04-14T00:08:23.092Z,100.00
2023-04-14T00:10:49.654Z,100.00
2023-04-14T00:13:16.301Z,100.00
2023-04-14T00:15:42.925Z,100.00
2023-04-14T00:18:09.512Z,100.00
2023-04-14T00:20:36.069Z,100.00
2023-04-14T00:23:02.662Z,100.00
2023-04-14T00:25:29.250Z,100.00
2023-04-14T00:27:56.097Z,100.00
2023-04-14T00:30:22.832Z,100.00
2023-04-14T00:32:49.404Z,100.00
2023-04-14T00:35:16.117Z,100.00
2023-04-14T00:37:42.703Z,100.00
2023-04-14T00:40:10.108Z,100.00
2023-04-14T00:42:46.895Z,100.00
2023-04-14T00:45:15.051Z,100.00
2023-04-14T00:47:46.961Z,100.00
2023-04-14T00:53:05.831Z,100.00
2023-04-14T00:55:33.732Z,100.00
2023-04-14T00:58:01.575Z,100.00
2023-04-14T01:00:28.691Z,100.00
2023-04-14T01:02:55.438Z,100.00
2023-04-14T01:05:22.425Z,100.00
2023-04-14T01:07:49.786Z,100.00
2023-04-14T01:10:16.746Z,100.00
2023-04-14T01:12:46.487Z,100.00
2023-04-14T01:15:35.748Z,100.00
2023-04-14T01:18:14.745Z,100.00
2023-04-14T01:20:43.839Z,100.00
2023-04-14T01:23:21.807Z,100.00
2023-04-14T01:26:09.379Z,100.00
2023-04-14T01:29:00.191Z,100.00
2023-04-14T01:31:32.701Z,100.00
2023-04-14T01:34:09.769Z,100.00
2023-04-14T01:37:05.128Z,100.00
2023-04-14T01:39:36.620Z,100.00
2023-04-14T01:42:06.823Z,100.00
2023-04-14T01:44:35.544Z,100.00
2023-04-14T01:47:05.965Z,100.00
2023-04-14T01:49:35.669Z,100.00
2023-04-14T01:52:04.860Z,100.00
2023-04-14T01:54:33.562Z,100.00
2023-04-14T01:57:03.219Z,100.00
2023-04-14T01:59:31.285Z,100.00
2023-04-14T02:02:01.694Z,100.00
2023-04-14T02:04:31.163Z,100.00
2023-04-14T02:07:00.474Z,100.00
2023-04-14T02:09:28.400Z,100.00
2023-04-14T02:11:55.965Z,100.00
2023-04-14T02:14:24.679Z,100.00
2023-04-14T02:16:53.916Z,100.00
2023-04-14T02:19:23.112Z,100.00
2023-04-14T02:21:51.439Z,100.00
2023-04-14T02:24:18.870Z,100.00
2023-04-14T02:26:58.422Z,100.00
2023-04-14T02:29:27.772Z,100.00
2023-04-14T02:32:04.407Z,100.00
2023-04-14T02:34:37.904Z,100.00
2023-04-14T02:37:10.200Z,100.00
2023-04-14T02:39:43.654Z,100.00
2023-04-14T02:42:15.949Z,100.00
2023-04-14T02:44:52.149Z,100.00
2023-04-14T02:47:27.172Z,100.00
2023-04-14T02:49:56.571Z,100.00
2023-04-14T02:52:25.587Z,100.00
2023-04-14T02:54:54.083Z,100.00
2023-04-14T02:57:21.956Z,100.00
2023-04-14T02:59:49.769Z,100.00
2023-04-14T03:02:17.846Z,100.00
2023-04-14T03:04:44.914Z,100.00
2023-04-14T03:07:13.512Z,100.00
2023-04-14T03:09:42.436Z,100.00
2023-04-14T03:12:14.644Z,100.00
2023-04-14T03:14:43.165Z,100.00
2023-04-14T03:17:11.399Z,100.00
2023-04-14T03:19:40.898Z,100.00
2023-04-14T03:22:13.097Z,100.00
2023-04-14T03:24:42.272Z,100.00
2023-04-14T03:27:12.419Z,100.00
2023-04-14T03:29:46.705Z,100.00
2023-04-14T03:32:17.728Z,100.00
2023-04-14T03:34:48.423Z,100.00
2023-04-14T03:37:18.165Z,100.00
2023-04-14T03:39:47.853Z,100.00
2023-04-14T03:42:14.937Z,100.00
2023-04-14T03:44:46.338Z,100.00
2023-04-14T03:47:14.721Z,100.00
2023-04-14T03:49:46.998Z,100.00
2023-04-14T03:52:16.997Z,100.00
2023-04-14T03:54:46.607Z,100.00
2023-04-14T03:57:17.728Z,100.00
2023-04-14T03:59:47.319Z,100.00
2023-04-14T04:02:15.229Z,100.00
2023-04-14T04:04:43.457Z,100.00
2023-04-14T04:07:13.679Z,100.00
2023-04-14T04:09:42.974Z,100.00
2023-04-14T04:12:13.310Z,100.00
2023-04-14T04:14:42.814Z,100.00
2023-04-14T04:17:12.624Z,100.00
2023-04-14T04:19:40.298Z,100.00
2023-04-14T04:22:08.692Z,100.00
2023-04-14T04:24:40.607Z,100.00
2023-04-14T04:27:17.168Z,100.00
2023-04-14T04:29:51.654Z,100.00
2023-04-14T04:32:18.532Z,100.00
2023-04-14T04:34:46.840Z,100.00
2023-04-14T04:37:14.343Z,100.00
2023-04-14T04:39:40.940Z,100.00
2023-04-14T04:42:07.758Z,100.00
2023-04-14T04:44:35.345Z,100.00
2023-04-14T04:47:02.698Z,100.00
2023-04-14T04:49:29.649Z,100.00
2023-04-14T04:51:57.228Z,100.00
2023-04-14T04:54:23.981Z,100.00
2023-04-14T04:56:50.633Z,100.00
2023-04-14T04:59:17.613Z,100.00
2023-04-14T05:01:44.334Z,100.00
2023-04-14T05:04:11.929Z,100.00
2023-04-14T05:06:38.836Z,100.00
2023-04-14T05:09:06.195Z,100.00
2023-04-14T05:11:33.851Z,100.00
2023-04-14T05:14:00.723Z,100.00
2023-04-14T05:16:28.457Z,100.00
2023-04-14T05:18:55.139Z,100.00
2023-04-14T05:21:22.181Z,100.00
2023-04-14T05:23:49.018Z,100.00
2023-04-14T05:28:46.470Z,100.00
2023-04-14T05:31:14.235Z,100.00
2023-04-14T05:33:40.824Z,100.00
2023-04-14T05:36:07.767Z,100.00
2023-04-14T05:38:37.712Z,100.00
2023-04-14T05:41:04.281Z,100.00
2023-04-14T05:43:30.843Z,100.00
2023-04-14T05:45:58.698Z,100.00
2023-04-14T05:48:28.449Z,100.00
2023-04-14T05:50:55.045Z,100.00
2023-04-14T05:53:21.743Z,100.00
2023-04-14T05:55:49.026Z,100.00
2023-04-14T05:58:15.592Z,100.00
2023-04-14T06:00:42.169Z,100.00
2023-04-14T06:03:09.153Z,100.00
2023-04-14T06:05:36.141Z,100.00
2023-04-14T06:08:03.847Z,100.00
2023-04-14T06:10:32.192Z,100.00
2023-04-14T06:12:58.854Z,100.00
2023-04-14T06:15:28.360Z,100.00
2023-04-14T06:17:55.181Z,100.00
2023-04-14T06:20:22.042Z,100.00
2023-04-14T06:22:48.620Z,100.00
2023-04-14T06:25:15.532Z,100.00
2023-04-14T06:27:42.092Z,100.00
2023-04-14T06:30:09.298Z,100.00
2023-04-14T06:32:35.990Z,100.00
2023-04-14T06:35:05.218Z,100.00
2023-04-14T06:37:32.385Z,100.00
2023-04-14T06:39:59.226Z,100.00
2023-04-14T06:42:25.942Z,100.00
2023-04-14T06:44:52.515Z,100.00
2023-04-14T06:47:20.113Z,100.00
2023-04-14T06:49:46.832Z,100.00
2023-04-14T06:52:13.432Z,100.00
2023-04-14T06:54:40.028Z,100.00
2023-04-14T06:57:06.807Z,100.00
2023-04-14T06:59:33.393Z,100.00
2023-04-14T07:02:00.201Z,100.00
2023-04-14T07:04:26.969Z,100.00
2023-04-14T07:06:53.624Z,100.00
2023-04-14T07:09:21.323Z,100.00
2023-04-14T07:11:48.120Z,100.00
2023-04-14T07:14:14.825Z,100.00
2023-04-14T07:16:41.364Z,100.00
2023-04-14T07:19:08.713Z,100.00
2023-04-14T07:21:35.350Z,100.00
2023-04-14T07:24:02.326Z,100.00
2023-04-14T07:26:29.159Z,100.00
2023-04-14T07:28:56.217Z,100.00
2023-04-14T07:31:23.128Z,100.00
2023-04-14T07:33:49.873Z,100.00
2023-04-14T07:36:16.452Z,100.00
2023-04-14T07:38:43.959Z,100.00
2023-04-14T07:41:10.614Z,100.00
2023-04-14T07:43:37.419Z,100.00
2023-04-14T07:46:08.338Z,100.00
2023-04-14T07:48:37.022Z,100.00
2023-04-14T07:51:05.190Z,100.00
2023-04-14T07:53:32.967Z,100.00
2023-04-14T07:55:59.831Z,100.00
2023-04-14T07:58:29.028Z,100.00
2023-04-14T08:00:56.172Z,100.00
2023-04-14T08:03:22.993Z,100.00
2023-04-14T08:05:49.868Z,100.00
2023-04-14T08:08:16.690Z,100.00
2023-04-14T08:10:43.242Z,100.00
2023-04-14T08:13:10.193Z,100.00
2023-04-14T08:15:36.990Z,100.00
2023-04-14T08:18:03.711Z,100.00
2023-04-14T08:20:30.342Z,100.00
2023-04-14T08:22:57.214Z,100.00
2023-04-14T08:25:24.503Z,100.00
2023-04-14T08:27:51.182Z,100.00
2023-04-14T08:30:17.834Z,100.00
2023-04-14T08:32:44.619Z,100.00
2023-04-14T08:35:37.480Z,100.00
2023-04-14T08:38:01.366Z,100.00
2023-04-14T08:40:38.456Z,100.00
2023-04-14T08:43:05.954Z,100.00
2023-04-14T08:45:33.720Z,100.00
2023-04-14T08:48:01.407Z,100.00
2023-04-14T08:50:33.963Z,100.00
2023-04-14T08:53:04.310Z,100.00
2023-04-14T08:55:32.583Z,100.00
2023-04-14T08:58:01.568Z,100.00
2023-04-14T09:00:28.329Z,99.65
2023-04-14T09:02:56.889Z,97.98
2023-04-14T09:05:24.058Z,96.23
2023-04-14T09:07:53.144Z,97.63
2023-04-14T09:10:21.520Z,96.36
2023-04-14T09:12:48.530Z,96.21
2023-04-14T09:15:16.724Z,91.78
2023-04-14T09:17:44.208Z,90.74
2023-04-14T09:20:34.614Z,90.00
2023-04-14T09:22:59.466Z,89.17
2023-04-14T09:25:26.601Z,89.40
2023-04-14T09:27:53.412Z,87.98
2023-04-14T09:30:52.315Z,87.08
2023-04-14T09:35:50.540Z,83.94
2023-04-14T09:38:36.657Z,86.53
2023-04-14T09:41:05.571Z,85.19
2023-04-14T09:43:32.456Z,84.49
2023-04-14T09:46:05.664Z,84.45
2023-04-14T09:48:32.632Z,82.31
2023-04-14T09:51:07.423Z,83.06
2023-04-14T09:53:38.174Z,78.81
2023-04-14T09:56:07.265Z,80.58
2023-04-14T09:58:39.757Z,74.69
2023-04-14T10:01:16.533Z,76.66
2023-04-14T10:03:45.696Z,77.49
2023-04-14T10:06:18.382Z,77.26
2023-04-14T10:08:48.864Z,77.67
2023-04-14T10:11:19.806Z,78.51
2023-04-14T10:13:48.500Z,79.65
2023-04-14T10:16:16.014Z,74.21
2023-04-14T10:18:43.519Z,76.16
2023-04-14T10:21:11.687Z,76.42
2023-04-14T10:23:39.632Z,76.16
2023-04-14T10:26:07.931Z,74.79
2023-04-14T10:28:36.388Z,69.43
2023-04-14T10:31:08.396Z,66.53
2023-04-14T10:33:38.323Z,69.12
2023-04-14T10:36:05.504Z,69.17
2023-04-14T10:38:46.059Z,67.22
2023-04-14T10:41:13.180Z,74.53
2023-04-14T10:43:40.458Z,71.58
2023-04-14T10:46:08.543Z,67.40
2023-04-14T10:48:37.948Z,65.53
2023-04-14T10:51:09.931Z,64.44
2023-04-14T10:53:45.898Z,64.80
2023-04-14T10:56:12.842Z,67.26
2023-04-14T10:58:39.825Z,70.96
2023-04-14T11:01:31.218Z,64.62
2023-04-14T11:04:11.584Z,57.15
2023-04-14T11:06:47.938Z,57.60
2023-04-14T11:09:24.342Z,56.88
2023-04-14T11:11:51.814Z,54.63
2023-04-14T11:14:26.185Z,52.50
2023-04-14T11:17:03.762Z,55.47
2023-04-14T11:19:32.150Z,56.08
2023-04-14T11:21:59.222Z,55.45
2023-04-14T11:24:26.878Z,52.75
2023-04-14T11:26:54.862Z,53.14
2023-04-14T11:29:22.190Z,55.55
2023-04-14T11:32:05.918Z,55.47
2023-04-14T11:34:34.456Z,59.76
2023-04-14T11:37:04.720Z,62.09
2023-04-14T11:39:31.627Z,65.70
2023-04-14T11:42:01.572Z,65.46
2023-04-14T11:44:28.309Z,65.30
2023-04-14T11:46:54.982Z,70.29
2023-04-14T11:49:33.469Z,71.12
2023-04-14T11:52:05.870Z,72.81
2023-04-14T11:54:37.453Z,71.12
2023-04-14T11:57:10.064Z,72.14
2023-04-14T11:59:47.696Z,74.93
2023-04-14T12:02:20.079Z,74.71
2023-04-14T12:04:50.597Z,74.21
2023-04-14T12:07:19.058Z,76.48
2023-04-14T12:09:49.656Z,76.01
2023-04-14T12:12:20.363Z,75.98
2023-04-14T12:14:49.099Z,74.92
2023-04-14T12:17:17.350Z,73.05
2023-04-14T12:19:45.393Z,71.33
2023-04-14T12:22:13.332Z,74.68
2023-04-14T12:24:42.755Z,73.02
2023-04-14T12:27:10.334Z,76.68
2023-04-14T12:29:37.316Z,76.55
2023-04-14T12:32:11.142Z,77.20
2023-04-14T12:34:38.119Z,77.34
2023-04-14T12:37:12.274Z,76.95
2023-04-14T12:40:03.298Z,70.63
2023-04-14T12:42:47.709Z,71.74
2023-04-14T12:45:16.352Z,68.11
2023-04-14T12:47:53.248Z,65.03
2023-04-14T12:50:28.806Z,62.29
2023-04-14T12:52:56.869Z,63.80
2023-04-14T12:55:25.822Z,58.40
2023-04-14T12:57:53.978Z,56.39
2023-04-14T13:00:26.307Z,50.78
2023-04-14T13:02:53.052Z,45.64
2023-04-14T13:05:20.003Z,45.41
2023-04-14T13:07:46.818Z,46.71
2023-04-14T13:10:13.734Z,49.18
2023-04-14T13:12:40.615Z,52.26
2023-04-14T13:15:07.763Z,56.27
2023-04-14T13:17:34.635Z,57.41
2023-04-14T13:20:01.462Z,51.86
2023-04-14T13:22:28.104Z,53.19
2023-04-14T13:24:58.606Z,51.17
2023-04-14T13:27:25.561Z,50.70
2023-04-14T13:29:52.154Z,53.42
2023-04-14T13:32:20.291Z,51.19
2023-04-14T13:34:46.896Z,44.84
2023-04-14T13:37:13.555Z,41.31
2023-04-14T13:39:40.344Z,40.84
2023-04-14T13:42:06.996Z,36.81
2023-04-14T13:44:35.833Z,36.43
2023-04-14T13:47:02.866Z,39.07
2023-04-14T13:49:30.314Z,38.54
2023-04-14T13:51:56.912Z,37.13
2023-04-14T13:54:23.521Z,40.58
2023-04-14T13:56:50.133Z,44.39
2023-04-14T13:59:17.452Z,48.09
2023-04-14T14:01:44.158Z,47.25
2023-04-14T14:04:11.026Z,47.72
2023-04-14T14:06:37.773Z,40.20
2023-04-14T14:09:06.605Z,39.81
2023-04-14T14:11:35.023Z,42.21
2023-04-14T14:14:02.027Z,46.84
2023-04-14T14:16:36.665Z,54.56
2023-04-14T14:19:05.503Z,61.53
2023-04-14T14:21:32.053Z,57.64
2023-04-14T14:23:59.435Z,62.31
2023-04-14T14:26:26.608Z,63.04
2023-04-14T14:28:53.216Z,61.82
2023-04-14T14:31:19.815Z,66.41
2023-04-14T14:33:46.647Z,66.10
2023-04-14T14:36:15.166Z,70.60
2023-04-14T14:38:41.836Z,69.98
2023-04-14T14:41:08.495Z,69.03
2023-04-14T14:43:35.327Z,66.06
2023-04-14T14:46:02.382Z,60.78
2023-04-14T14:48:29.176Z,51.56
2023-04-14T14:50:55.985Z,40.51
2023-04-14T14:53:22.744Z,34.78
2023-04-14T14:55:49.339Z,31.31
2023-04-14T14:58:16.321Z,32.69
2023-04-14T15:00:42.883Z,37.39
2023-04-14T15:03:09.716Z,41.84
2023-04-14T15:05:38.469Z,48.88
2023-04-14T15:08:05.592Z,55.54
2023-04-14T15:10:32.178Z,60.75
2023-04-14T15:12:58.890Z,61.91
2023-04-14T15:15:25.534Z,66.41
2023-04-14T15:17:52.217Z,67.99
2023-04-14T15:20:18.874Z,66.46
2023-04-14T15:22:45.682Z,51.29
2023-04-14T15:25:12.545Z,57.15
2023-04-14T15:27:39.421Z,63.27
2023-04-14T15:30:07.063Z,67.80
2023-04-14T15:32:33.913Z,69.89
2023-04-14T15:35:03.202Z,70.02
2023-04-14T15:37:29.914Z,70.91
2023-04-14T15:39:56.945Z,72.41
2023-04-14T15:42:23.741Z,76.68
2023-04-14T15:44:52.016Z,72.98
2023-04-14T15:47:19.072Z,71.16
2023-04-14T15:49:49.997Z,66.87
2023-04-14T15:52:19.062Z,55.62
2023-04-14T15:54:45.678Z,46.29
2023-04-14T15:57:12.536Z,41.93
2023-04-14T15:59:39.193Z,37.38
2023-04-14T16:02:06.088Z,34.97
2023-04-14T16:04:32.808Z,35.96
2023-04-14T16:06:59.457Z,35.42
2023-04-14T16:09:26.941Z,35.12
2023-04-14T16:11:53.524Z,39.22
2023-04-14T16:14:20.090Z,41.57
2023-04-14T16:16:48.332Z,41.51
2023-04-14T16:19:17.583Z,44.59
2023-04-14T16:21:44.490Z,48.30
2023-04-14T16:24:11.368Z,50.81
2023-04-14T16:26:38.658Z,56.73
2023-04-14T16:29:05.510Z,58.92
2023-04-14T16:31:32.446Z,64.79
2023-04-14T16:33:59.287Z,69.76
2023-04-14T16:36:26.462Z,71.47
2023-04-14T16:38:53.162Z,74.59
2023-04-14T16:41:20.514Z,73.13
2023-04-14T16:43:47.668Z,71.59
2023-04-14T16:46:14.723Z,74.96
2023-04-14T16:48:41.544Z,77.50
2023-04-14T16:51:09.217Z,79.95
2023-04-14T16:53:36.732Z,81.62
2023-04-14T16:56:10.613Z,81.35
2023-04-14T16:58:39.019Z,83.30
2023-04-14T17:01:06.519Z,87.00
2023-04-14T17:03:34.018Z,87.15
2023-04-14T17:06:00.866Z,91.52
2023-04-14T17:08:27.694Z,91.52
2023-04-14T17:10:57.434Z,94.29
2023-04-14T17:13:24.112Z,92.41
2023-04-14T17:15:58.931Z,93.14
2023-04-14T17:18:34.738Z,95.12
2023-04-14T17:21:01.366Z,97.23
2023-04-14T17:23:28.049Z,96.03
2023-04-14T17:25:55.505Z,99.86
2023-04-14T17:28:22.908Z,98.53
2023-04-14T17:30:50.180Z,100.00
2023-04-14T17:33:17.650Z,100.00
2023-04-14T17:35:44.372Z,100.00
2023-04-14T17:38:10.948Z,100.00
2023-04-14T17:40:37.790Z,100.00
2023-04-14T17:43:07.513Z,100.00
2023-04-14T17:45:35.294Z,100.00
2023-04-14T17:48:01.937Z,100.00
2023-04-14T17:50:29.545Z,100.00
2023-04-14T17:52:57.658Z,100.00
2023-04-14T17:55:24.475Z,100.00
2023-04-14T17:57:51.741Z,100.00
2023-04-14T18:00:19.036Z,100.00
2023-04-14T18:02:45.818Z,100.00
2023-04-14T18:05:13.311Z,100.00
2023-04-14T18:07:42.236Z,100.00
2023-04-14T18:10:09.285Z,100.00
2023-04-14T18:12:36.829Z,100.00
2023-04-14T18:15:04.940Z,100.00
2023-04-14T18:17:31.627Z,100.00
2023-04-14T18:20:00.859Z,100.00
2023-04-14T18:22:27.622Z,100.00
2023-04-14T18:24:54.219Z,100.00
2023-04-14T18:29:51.374Z,100.00
2023-04-14T18:32:18.259Z,100.00
2023-04-14T18:34:45.023Z,100.00
2023-04-14T18:37:11.928Z,100.00
2023-04-14T18:39:38.785Z,100.00
2023-04-14T18:42:05.634Z,100.00
2023-04-14T18:44:32.819Z,100.00
2023-04-14T18:46:59.795Z,100.00
2023-04-14T18:49:26.366Z,100.00
2023-04-14T18:51:53.571Z,100.00
2023-04-14T18:54:21.982Z,100.00
2023-04-14T18:56:48.949Z,100.00
2023-04-14T18:59:15.635Z,100.00
2023-04-14T19:01:42.303Z,100.00
2023-04-14T19:04:09.085Z,100.00
2023-04-14T19:06:36.769Z,100.00
2023-04-14T19:09:04.678Z,100.00
2023-04-14T19:11:36.001Z,100.00
2023-04-14T19:14:04.811Z,100.00
2023-04-14T19:16:31.689Z,100.00
2023-04-14T19:18:58.983Z,100.00
2023-04-14T19:21:26.259Z,100.00
2023-04-14T19:23:54.662Z,100.00
2023-04-14T19:26:21.240Z,100.00
2023-04-14T19:28:47.998Z,100.00
2023-04-14T19:31:14.954Z,100.00
2023-04-14T19:33:42.052Z,100.00
2023-04-14T19:36:13.109Z,100.00
2023-04-14T19:38:39.759Z,100.00
2023-04-14T19:41:06.437Z,100.00
2023-04-14T19:43:33.075Z,100.00
2023-04-14T19:46:07.802Z,100.00
2023-04-14T19:48:34.767Z,100.00
2023-04-14T19:51:02.177Z,100.00
2023-04-14T19:53:29.045Z,100.00
2023-04-14T19:55:58.712Z,100.00
2023-04-14T19:58:26.966Z,100.00
2023-04-14T20:00:57.409Z,100.00
2023-04-14T20:03:25.087Z,100.00
2023-04-14T20:05:55.828Z,100.00
2023-04-14T20:08:23.592Z,100.00
2023-04-14T20:10:52.108Z,100.00
2023-04-14T20:13:23.279Z,100.00
2023-04-14T20:15:53.928Z,100.00
2023-04-14T20:18:22.874Z,100.00
2023-04-14T20:20:49.822Z,100.00
2023-04-14T20:23:16.444Z,100.00
2023-04-14T20:25:44.176Z,100.00
2023-04-14T20:28:10.780Z,100.00
2023-04-14T20:30:37.947Z,100.00
2023-04-14T20:33:04.744Z,100.00
2023-04-14T20:35:35.738Z,100.00
2023-04-14T20:38:02.768Z,100.00
2023-04-14T20:40:30.398Z,100.00
2023-04-14T20:42:57.134Z,100.00
2023-04-14T20:45:23.850Z,100.00
2023-04-14T20:47:51.074Z,100.00
2023-04-14T20:50:18.849Z,100.00
2023-04-14T20:52:46.702Z,100.00
2023-04-14T20:55:16.361Z,100.00
2023-04-14T20:57:43.310Z,100.00
2023-04-14T21:00:12.190Z,100.00
2023-04-14T21:02:39.166Z,100.00
2023-04-14T21:05:06.303Z,100.00
2023-04-14T21:07:35.085Z,100.00
2023-04-14T21:10:01.961Z,100.00
2023-04-14T21:12:35.934Z,100.00
2023-04-14T21:15:44.117Z,100.00
2023-04-14T21:17:52.503Z,100.00
2023-04-14T21:20:19.238Z,100.00
2023-04-14T21:22:46.176Z,100.00
2023-04-14T21:25:12.934Z,100.00
2023-04-14T21:27:39.846Z,100.00
2023-04-14T21:30:07.195Z,100.00
2023-04-14T21:32:34.387Z,100.00
2023-04-14T21:35:01.263Z,100.00
2023-04-14T21:37:27.958Z,100.00
2023-04-14T21:39:55.543Z,100.00
2023-04-14T21:42:22.451Z,100.00
2023-04-14T21:44:49.428Z,100.00
2023-04-14T21:47:16.499Z,100.00
2023-04-14T21:49:43.110Z,100.00
2023-04-14T21:52:10.287Z,100.00
2023-04-14T21:54:40.436Z,100.00
2023-04-14T21:57:07.875Z,100.00
2023-04-14T21:59:34.409Z,100.00
2023-04-14T22:02:01.277Z,100.00
2023-04-14T22:04:35.941Z,100.00
2023-04-14T22:07:03.326Z,100.00
2023-04-14T22:09:30.109Z,100.00
2023-04-14T22:11:57.779Z,100.00
2023-04-14T22:14:24.424Z,100.00
2023-04-14T22:16:51.035Z,100.00
2023-04-14T22:19:18.105Z,100.00
2023-04-14T22:21:44.656Z,100.00
2023-04-14T22:24:11.446Z,100.00
2023-04-14T22:26:38.078Z,100.00
2023-04-14T22:29:04.996Z,100.00
2023-04-14T22:31:32.380Z,100.00
2023-04-14T22:33:59.038Z,100.00
2023-04-14T22:36:25.676Z,100.00
2023-04-14T22:38:52.324Z,100.00
2023-04-14T22:41:18.908Z,100.00
2023-04-14T22:43:45.508Z,100.00
2023-04-14T22:46:12.217Z,100.00
2023-04-14T22:48:38.813Z,100.00
2023-04-14T22:51:05.659Z,100.00
2023-04-14T22:53:32.364Z,100.00
2023-04-14T22:55:59.009Z,100.00
2023-04-14T22:58:25.991Z,100.00
2023-04-14T23:00:52.780Z,100.00
2023-04-14T23:03:19.520Z,100.00
2023-04-14T23:05:46.449Z,100.00
2023-04-14T23:08:13.105Z,100.00
2023-04-14T23:10:39.651Z,100.00
2023-04-14T23:13:06.581Z,100.00
2023-04-14T23:15:33.284Z,100.00
2023-04-14T23:17:59.947Z,100.00
2023-04-14T23:20:27.186Z,100.00
2023-04-14T23:22:53.844Z,100.00
2023-04-14T23:25:20.381Z,100.00
2023-04-14T23:27:47.227Z,100.00
2023-04-14T23:30:14.344Z,100.00
2023-04-14T23:32:40.912Z,100.00
2023-04-14T23:35:08.027Z,100.00
2023-04-14T23:37:34.603Z,100.00
2023-04-14T23:40:01.231Z,100.00
2023-04-14T23:42:28.005Z,100.00
2023-04-14T23:44:54.590Z,100.00
2023-04-14T23:47:21.850Z,100.00
2023-04-14T23:49:48.532Z,100.00
2023-04-14T23:52:15.111Z,100.00
2023-04-14T23:54:41.970Z,100.00
2023-04-14T23:57:09.114Z,100.00
2023-04-14T23:59:36.334Z,100.00
